sensor_id;sensor_type;location;lat;lon;timestamp;P1;P2;P0
77794;PMS5003;66985;45.778;3.090;2023-02-28T00:01:38;22;21;
77794;PMS5003;66985;45.778;3.090;2023-02-28T00:04:04;22;20;
77794;PMS5003;66985;45.778;3.090;2023-02-28T00:06:30;26;25;
77794;PMS5003;66985;45.778;3.090;2023-02-28T00:08:56;31;27;
77794;PMS5003;66985;45.778;3.090;2023-02-28T00:11:21;25;23;
77794;PMS5003;66985;45.778;3.090;2023-02-28T00:13:46;22;19;
77794;PMS5003;66985;45.778;3.090;2023-02-28T00:16:13;22;20;
77794;PMS5003;66985;45.778;3.090;2023-02-28T00:18:37;26;24;
77794;PMS5003;66985;45.778;3.090;2023-02-28T00:21:03;25;21;
77794;PMS5003;66985;45.778;3.090;2023-02-28T00:23:28;26;23;
77794;PMS5003;66985;45.778;3.090;2023-02-28T00:25:53;22;22;
77794;PMS5003;66985;45.778;3.090;2023-02-28T00:28:19;22;19;
77794;PMS5003;66985;45.778;3.090;2023-02-28T00:30:45;23;22;
77794;PMS5003;66985;45.778;3.090;2023-02-28T00:33:10;25;21;
77794;PMS5003;66985;45.778;3.090;2023-02-28T00:35:36;26;23;
77794;PMS5003;66985;45.778;3.090;2023-02-28T00:38:01;23;21;
77794;PMS5003;66985;45.778;3.090;2023-02-28T00:40:27;17;17;
77794;PMS5003;66985;45.778;3.090;2023-02-28T00:42:52;22;20;
77794;PMS5003;66985;45.778;3.090;2023-02-28T00:45:17;24;21;
77794;PMS5003;66985;45.778;3.090;2023-02-28T00:47:43;22;19;
77794;PMS5003;66985;45.778;3.090;2023-02-28T00:50:09;21;19;
77794;PMS5003;66985;45.778;3.090;2023-02-28T00:52:34;22;20;
77794;PMS5003;66985;45.778;3.090;2023-02-28T00:54:59;25;23;
77794;PMS5003;66985;45.778;3.090;2023-02-28T00:57:25;21;21;
77794;PMS5003;66985;45.778;3.090;2023-02-28T00:59:50;23;22;
77794;PMS5003;66985;45.778;3.090;2023-02-28T01:02:15;19;19;
77794;PMS5003;66985;45.778;3.090;2023-02-28T01:04:40;20;20;
77794;PMS5003;66985;45.778;3.090;2023-02-28T01:07:06;14;14;
77794;PMS5003;66985;45.778;3.090;2023-02-28T01:09:31;20;20;
77794;PMS5003;66985;45.778;3.090;2023-02-28T01:11:56;21;17;
77794;PMS5003;66985;45.778;3.090;2023-02-28T01:14:22;21;16;
77794;PMS5003;66985;45.778;3.090;2023-02-28T01:16:47;20;17;
77794;PMS5003;66985;45.778;3.090;2023-02-28T01:19:13;19;17;
77794;PMS5003;66985;45.778;3.090;2023-02-28T01:21:38;20;16;
77794;PMS5003;66985;45.778;3.090;2023-02-28T01:24:03;20;18;
77794;PMS5003;66985;45.778;3.090;2023-02-28T01:26:28;16;16;
77794;PMS5003;66985;45.778;3.090;2023-02-28T01:28:53;17;15;
77794;PMS5003;66985;45.778;3.090;2023-02-28T01:31:18;21;18;
77794;PMS5003;66985;45.778;3.090;2023-02-28T01:33:44;15;14;
77794;PMS5003;66985;45.778;3.090;2023-02-28T01:36:10;11;11;
77794;PMS5003;66985;45.778;3.090;2023-02-28T01:38:35;16;15;
77794;PMS5003;66985;45.778;3.090;2023-02-28T01:41:02;15;15;
77794;PMS5003;66985;45.778;3.090;2023-02-28T01:43:28;20;16;
77794;PMS5003;66985;45.778;3.090;2023-02-28T01:45:53;15;12;
77794;PMS5003;66985;45.778;3.090;2023-02-28T01:48:18;17;14;
77794;PMS5003;66985;45.778;3.090;2023-02-28T01:50:43;11;11;
77794;PMS5003;66985;45.778;3.090;2023-02-28T01:53:09;12;12;
77794;PMS5003;66985;45.778;3.090;2023-02-28T01:55:33;14;14;
77794;PMS5003;66985;45.778;3.090;2023-02-28T01:58:00;12;12;
77794;PMS5003;66985;45.778;3.090;2023-02-28T02:00:25;15;13;
77794;PMS5003;66985;45.778;3.090;2023-02-28T02:02:51;14;11;
77794;PMS5003;66985;45.778;3.090;2023-02-28T02:05:17;11;11;
77794;PMS5003;66985;45.778;3.090;2023-02-28T02:07:42;17;14;
77794;PMS5003;66985;45.778;3.090;2023-02-28T02:10:13;12;11;
77794;PMS5003;66985;45.778;3.090;2023-02-28T02:12:35;11;11;
77794;PMS5003;66985;45.778;3.090;2023-02-28T02:15:00;9;9;
77794;PMS5003;66985;45.778;3.090;2023-02-28T02:17:25;11;11;
77794;PMS5003;66985;45.778;3.090;2023-02-28T02:19:56;14;14;
77794;PMS5003;66985;45.778;3.090;2023-02-28T02:22:21;15;13;
77794;PMS5003;66985;45.778;3.090;2023-02-28T02:24:46;13;13;
77794;PMS5003;66985;45.778;3.090;2023-02-28T02:27:08;11;11;
77794;PMS5003;66985;45.778;3.090;2023-02-28T02:29:38;12;12;
77794;PMS5003;66985;45.778;3.090;2023-02-28T02:32:01;11;9;
77794;PMS5003;66985;45.778;3.090;2023-02-28T02:34:24;8;8;
77794;PMS5003;66985;45.778;3.090;2023-02-28T02:36:48;13;12;
77794;PMS5003;66985;45.778;3.090;2023-02-28T02:39:13;10;10;
77794;PMS5003;66985;45.778;3.090;2023-02-28T02:41:39;10;10;
77794;PMS5003;66985;45.778;3.090;2023-02-28T02:44:05;9;9;
77794;PMS5003;66985;45.778;3.090;2023-02-28T02:46:29;10;10;
77794;PMS5003;66985;45.778;3.090;2023-02-28T02:48:54;14;12;
77794;PMS5003;66985;45.778;3.090;2023-02-28T02:51:20;12;10;
77794;PMS5003;66985;45.778;3.090;2023-02-28T02:53:46;6;6;
77794;PMS5003;66985;45.778;3.090;2023-02-28T02:56:10;13;11;
77794;PMS5003;66985;45.778;3.090;2023-02-28T02:58:37;15;11;
77794;PMS5003;66985;45.778;3.090;2023-02-28T03:01:02;8;8;
77794;PMS5003;66985;45.778;3.090;2023-02-28T03:03:28;11;10;
77794;PMS5003;66985;45.778;3.090;2023-02-28T03:05:53;13;10;
77794;PMS5003;66985;45.778;3.090;2023-02-28T03:08:18;10;9;
77794;PMS5003;66985;45.778;3.090;2023-02-28T03:10:44;10;10;
77794;PMS5003;66985;45.778;3.090;2023-02-28T03:15:20;11;11;
77794;PMS5003;66985;45.778;3.090;2023-02-28T03:17:52;8;8;
77794;PMS5003;66985;45.778;3.090;2023-02-28T03:20:14;8;8;
77794;PMS5003;66985;45.778;3.090;2023-02-28T03:22:41;7;7;
77794;PMS5003;66985;45.778;3.090;2023-02-28T03:25:04;8;7;
77794;PMS5003;66985;45.778;3.090;2023-02-28T03:27:29;9;7;
77794;PMS5003;66985;45.778;3.090;2023-02-28T03:29:56;8;8;
77794;PMS5003;66985;45.778;3.090;2023-02-28T03:32:21;8;8;
77794;PMS5003;66985;45.778;3.090;2023-02-28T03:34:46;7;7;
77794;PMS5003;66985;45.778;3.090;2023-02-28T03:37:10;9;8;
77794;PMS5003;66985;45.778;3.090;2023-02-28T03:39:36;7;6;
77794;PMS5003;66985;45.778;3.090;2023-02-28T03:42:01;10;10;
77794;PMS5003;66985;45.778;3.090;2023-02-28T03:44:27;7;7;
77794;PMS5003;66985;45.778;3.090;2023-02-28T03:46:52;7;7;
77794;PMS5003;66985;45.778;3.090;2023-02-28T03:49:18;9;7;
77794;PMS5003;66985;45.778;3.090;2023-02-28T03:51:43;7;6;
77794;PMS5003;66985;45.778;3.090;2023-02-28T03:54:09;9;9;
77794;PMS5003;66985;45.778;3.090;2023-02-28T03:56:34;9;9;
77794;PMS5003;66985;45.778;3.090;2023-02-28T03:59:00;5;5;
77794;PMS5003;66985;45.778;3.090;2023-02-28T04:01:25;6;6;
77794;PMS5003;66985;45.778;3.090;2023-02-28T04:03:50;8;8;
77794;PMS5003;66985;45.778;3.090;2023-02-28T04:06:16;7;7;
77794;PMS5003;66985;45.778;3.090;2023-02-28T04:08:41;7;6;
77794;PMS5003;66985;45.778;3.090;2023-02-28T04:11:08;5;5;
77794;PMS5003;66985;45.778;3.090;2023-02-28T04:13:32;8;8;
77794;PMS5003;66985;45.778;3.090;2023-02-28T04:15:58;6;6;
77794;PMS5003;66985;45.778;3.090;2023-02-28T04:18:23;10;9;
77794;PMS5003;66985;45.778;3.090;2023-02-28T04:20:49;6;6;
77794;PMS5003;66985;45.778;3.090;2023-02-28T04:23:14;5;5;
77794;PMS5003;66985;45.778;3.090;2023-02-28T04:25:40;6;6;
77794;PMS5003;66985;45.778;3.090;2023-02-28T04:28:05;4;4;
77794;PMS5003;66985;45.778;3.090;2023-02-28T04:30:31;7;7;
77794;PMS5003;66985;45.778;3.090;2023-02-28T04:32:56;8;8;
77794;PMS5003;66985;45.778;3.090;2023-02-28T04:35:22;7;7;
77794;PMS5003;66985;45.778;3.090;2023-02-28T04:37:47;6;6;
77794;PMS5003;66985;45.778;3.090;2023-02-28T04:40:13;4;4;
77794;PMS5003;66985;45.778;3.090;2023-02-28T04:42:38;7;7;
77794;PMS5003;66985;45.778;3.090;2023-02-28T04:45:04;6;6;
77794;PMS5003;66985;45.778;3.090;2023-02-28T04:47:29;3;3;
77794;PMS5003;66985;45.778;3.090;2023-02-28T04:49:55;5;5;
77794;PMS5003;66985;45.778;3.090;2023-02-28T04:52:20;5;5;
77794;PMS5003;66985;45.778;3.090;2023-02-28T04:54:46;5;4;
77794;PMS5003;66985;45.778;3.090;2023-02-28T04:57:11;4;4;
77794;PMS5003;66985;45.778;3.090;2023-02-28T04:59:37;6;6;
77794;PMS5003;66985;45.778;3.090;2023-02-28T05:02:02;4;3;
77794;PMS5003;66985;45.778;3.090;2023-02-28T05:04:28;7;5;
77794;PMS5003;66985;45.778;3.090;2023-02-28T05:06:53;4;4;
77794;PMS5003;66985;45.778;3.090;2023-02-28T05:09:19;5;5;
77794;PMS5003;66985;45.778;3.090;2023-02-28T05:11:44;4;4;
77794;PMS5003;66985;45.778;3.090;2023-02-28T05:14:10;4;4;
77794;PMS5003;66985;45.778;3.090;2023-02-28T05:16:35;4;3;
77794;PMS5003;66985;45.778;3.090;2023-02-28T05:19:01;4;4;
77794;PMS5003;66985;45.778;3.090;2023-02-28T05:21:27;5;5;
77794;PMS5003;66985;45.778;3.090;2023-02-28T05:23:52;4;4;
77794;PMS5003;66985;45.778;3.090;2023-02-28T05:26:17;5;5;
77794;PMS5003;66985;45.778;3.090;2023-02-28T05:28:43;4;4;
77794;PMS5003;66985;45.778;3.090;2023-02-28T05:31:08;4;4;
77794;PMS5003;66985;45.778;3.090;2023-02-28T05:33:34;5;5;
77794;PMS5003;66985;45.778;3.090;2023-02-28T05:35:59;5;5;
77794;PMS5003;66985;45.778;3.090;2023-02-28T05:38:25;5;5;
77794;PMS5003;66985;45.778;3.090;2023-02-28T05:40:50;4;4;
77794;PMS5003;66985;45.778;3.090;2023-02-28T05:43:16;4;4;
77794;PMS5003;66985;45.778;3.090;2023-02-28T05:45:41;5;5;
77794;PMS5003;66985;45.778;3.090;2023-02-28T05:48:07;4;4;
77794;PMS5003;66985;45.778;3.090;2023-02-28T05:50:32;5;5;
77794;PMS5003;66985;45.778;3.090;2023-02-28T05:52:58;4;4;
77794;PMS5003;66985;45.778;3.090;2023-02-28T05:55:23;4;3;
77794;PMS5003;66985;45.778;3.090;2023-02-28T05:57:49;5;3;
77794;PMS5003;66985;45.778;3.090;2023-02-28T06:00:15;4;4;
77794;PMS5003;66985;45.778;3.090;2023-02-28T06:02:40;3;3;
77794;PMS5003;66985;45.778;3.090;2023-02-28T06:05:06;6;6;
77794;PMS5003;66985;45.778;3.090;2023-02-28T06:07:31;4;4;
77794;PMS5003;66985;45.778;3.090;2023-02-28T06:09:56;3;3;
77794;PMS5003;66985;45.778;3.090;2023-02-28T06:12:22;6;6;
77794;PMS5003;66985;45.778;3.090;2023-02-28T06:14:47;2;2;
77794;PMS5003;66985;45.778;3.090;2023-02-28T06:17:13;6;5;
77794;PMS5003;66985;45.778;3.090;2023-02-28T06:19:38;6;5;
77794;PMS5003;66985;45.778;3.090;2023-02-28T06:22:04;4;4;
77794;PMS5003;66985;45.778;3.090;2023-02-28T06:24:29;3;3;
77794;PMS5003;66985;45.778;3.090;2023-02-28T06:26:55;3;3;
77794;PMS5003;66985;45.778;3.090;2023-02-28T06:29:20;4;3;
77794;PMS5003;66985;45.778;3.090;2023-02-28T06:31:46;5;5;
77794;PMS5003;66985;45.778;3.090;2023-02-28T06:34:11;3;3;
77794;PMS5003;66985;45.778;3.090;2023-02-28T06:37:43;5;5;
77794;PMS5003;66985;45.778;3.090;2023-02-28T06:39:02;4;4;
77794;PMS5003;66985;45.778;3.090;2023-02-28T06:41:28;5;5;
77794;PMS5003;66985;45.778;3.090;2023-02-28T06:43:53;3;3;
77794;PMS5003;66985;45.778;3.090;2023-02-28T06:46:19;4;4;
77794;PMS5003;66985;45.778;3.090;2023-02-28T06:48:44;4;3;
77794;PMS5003;66985;45.778;3.090;2023-02-28T06:51:11;4;4;
77794;PMS5003;66985;45.778;3.090;2023-02-28T06:53:35;3;2;
77794;PMS5003;66985;45.778;3.090;2023-02-28T06:56:03;3;3;
77794;PMS5003;66985;45.778;3.090;2023-02-28T06:58:26;3;3;
77794;PMS5003;66985;45.778;3.090;2023-02-28T07:00:52;4;4;
77794;PMS5003;66985;45.778;3.090;2023-02-28T07:03:17;4;3;
77794;PMS5003;66985;45.778;3.090;2023-02-28T07:05:43;4;3;
77794;PMS5003;66985;45.778;3.090;2023-02-28T07:08:08;2;2;
77794;PMS5003;66985;45.778;3.090;2023-02-28T07:10:34;5;5;
77794;PMS5003;66985;45.778;3.090;2023-02-28T07:12:59;3;3;
77794;PMS5003;66985;45.778;3.090;2023-02-28T07:15:25;2;2;
77794;PMS5003;66985;45.778;3.090;2023-02-28T07:17:50;4;4;
77794;PMS5003;66985;45.778;3.090;2023-02-28T07:20:16;4;4;
77794;PMS5003;66985;45.778;3.090;2023-02-28T07:22:41;6;4;
77794;PMS5003;66985;45.778;3.090;2023-02-28T07:25:07;3;3;
77794;PMS5003;66985;45.778;3.090;2023-02-28T07:27:32;3;3;
77794;PMS5003;66985;45.778;3.090;2023-02-28T07:29:58;3;3;
77794;PMS5003;66985;45.778;3.090;2023-02-28T07:32:23;3;3;
77794;PMS5003;66985;45.778;3.090;2023-02-28T07:34:49;2;2;
77794;PMS5003;66985;45.778;3.090;2023-02-28T07:37:14;4;4;
77794;PMS5003;66985;45.778;3.090;2023-02-28T07:39:40;6;5;
77794;PMS5003;66985;45.778;3.090;2023-02-28T07:42:05;3;3;
77794;PMS5003;66985;45.778;3.090;2023-02-28T07:44:30;4;4;
77794;PMS5003;66985;45.778;3.090;2023-02-28T07:46:56;6;2;
77794;PMS5003;66985;45.778;3.090;2023-02-28T07:49:22;11;11;
77794;PMS5003;66985;45.778;3.090;2023-02-28T07:51:47;15;13;
77794;PMS5003;66985;45.778;3.090;2023-02-28T07:54:13;15;15;
77794;PMS5003;66985;45.778;3.090;2023-02-28T07:56:39;10;10;
77794;PMS5003;66985;45.778;3.090;2023-02-28T07:59:04;9;9;
77794;PMS5003;66985;45.778;3.090;2023-02-28T08:01:30;7;7;
77794;PMS5003;66985;45.778;3.090;2023-02-28T08:03:56;9;9;
77794;PMS5003;66985;45.778;3.090;2023-02-28T08:06:22;6;6;
77794;PMS5003;66985;45.778;3.090;2023-02-28T08:08:47;6;6;
77794;PMS5003;66985;45.778;3.090;2023-02-28T08:11:12;8;8;
77794;PMS5003;66985;45.778;3.090;2023-02-28T08:13:38;7;7;
77794;PMS5003;66985;45.778;3.090;2023-02-28T08:16:04;8;8;
77794;PMS5003;66985;45.778;3.090;2023-02-28T08:18:29;8;8;
77794;PMS5003;66985;45.778;3.090;2023-02-28T08:20:55;6;6;
77794;PMS5003;66985;45.778;3.090;2023-02-28T08:23:20;7;7;
77794;PMS5003;66985;45.778;3.090;2023-02-28T08:25:52;6;6;
77794;PMS5003;66985;45.778;3.090;2023-02-28T08:28:11;9;8;
77794;PMS5003;66985;45.778;3.090;2023-02-28T08:30:37;6;6;
77794;PMS5003;66985;45.778;3.090;2023-02-28T08:33:02;8;7;
77794;PMS5003;66985;45.778;3.090;2023-02-28T08:35:28;7;7;
77794;PMS5003;66985;45.778;3.090;2023-02-28T08:37:53;10;9;
77794;PMS5003;66985;45.778;3.090;2023-02-28T08:40:19;8;7;
77794;PMS5003;66985;45.778;3.090;2023-02-28T08:42:45;7;7;
77794;PMS5003;66985;45.778;3.090;2023-02-28T08:45:11;8;8;
77794;PMS5003;66985;45.778;3.090;2023-02-28T08:47:36;11;9;
77794;PMS5003;66985;45.778;3.090;2023-02-28T08:50:01;8;7;
77794;PMS5003;66985;45.778;3.090;2023-02-28T08:52:26;6;6;
77794;PMS5003;66985;45.778;3.090;2023-02-28T08:54:52;8;8;
77794;PMS5003;66985;45.778;3.090;2023-02-28T08:57:17;6;6;
77794;PMS5003;66985;45.778;3.090;2023-02-28T08:59:43;7;7;
77794;PMS5003;66985;45.778;3.090;2023-02-28T09:02:09;10;7;
77794;PMS5003;66985;45.778;3.090;2023-02-28T09:04:34;8;8;
77794;PMS5003;66985;45.778;3.090;2023-02-28T09:07:00;7;6;
77794;PMS5003;66985;45.778;3.090;2023-02-28T09:09:25;6;6;
77794;PMS5003;66985;45.778;3.090;2023-02-28T09:11:51;7;6;
77794;PMS5003;66985;45.778;3.090;2023-02-28T09:14:16;6;6;
77794;PMS5003;66985;45.778;3.090;2023-02-28T09:16:42;7;7;
77794;PMS5003;66985;45.778;3.090;2023-02-28T09:19:10;6;5;
77794;PMS5003;66985;45.778;3.090;2023-02-28T09:21:33;6;6;
77794;PMS5003;66985;45.778;3.090;2023-02-28T09:23:59;7;6;
77794;PMS5003;66985;45.778;3.090;2023-02-28T09:26:25;5;5;
77794;PMS5003;66985;45.778;3.090;2023-02-28T09:28:50;6;6;
77794;PMS5003;66985;45.778;3.090;2023-02-28T09:31:16;8;7;
77794;PMS5003;66985;45.778;3.090;2023-02-28T09:33:41;5;5;
77794;PMS5003;66985;45.778;3.090;2023-02-28T09:36:07;4;4;
77794;PMS5003;66985;45.778;3.090;2023-02-28T09:38:32;8;7;
77794;PMS5003;66985;45.778;3.090;2023-02-28T09:40:59;6;6;
77794;PMS5003;66985;45.778;3.090;2023-02-28T09:43:23;8;7;
77794;PMS5003;66985;45.778;3.090;2023-02-28T09:45:49;7;7;
77794;PMS5003;66985;45.778;3.090;2023-02-28T09:48:14;6;6;
77794;PMS5003;66985;45.778;3.090;2023-02-28T09:50:40;5;5;
77794;PMS5003;66985;45.778;3.090;2023-02-28T09:53:06;7;5;
77794;PMS5003;66985;45.778;3.090;2023-02-28T09:55:31;7;7;
77794;PMS5003;66985;45.778;3.090;2023-02-28T09:57:56;6;6;
77794;PMS5003;66985;45.778;3.090;2023-02-28T10:00:22;6;5;
77794;PMS5003;66985;45.778;3.090;2023-02-28T10:02:58;7;7;
77794;PMS5003;66985;45.778;3.090;2023-02-28T10:05:13;5;5;
77794;PMS5003;66985;45.778;3.090;2023-02-28T10:07:43;8;8;
77794;PMS5003;66985;45.778;3.090;2023-02-28T10:10:04;5;5;
77794;PMS5003;66985;45.778;3.090;2023-02-28T10:10:18;5;5;
77794;PMS5003;66985;45.778;3.090;2023-02-28T10:12:40;5;5;
77794;PMS5003;66985;45.778;3.090;2023-02-28T10:15:08;7;3;
77794;PMS5003;66985;45.778;3.090;2023-02-28T10:17:34;6;6;
77794;PMS5003;66985;45.778;3.090;2023-02-28T10:19:58;6;6;
77794;PMS5003;66985;45.778;3.090;2023-02-28T10:22:23;8;6;
77794;PMS5003;66985;45.778;3.090;2023-02-28T10:24:49;6;5;
77794;PMS5003;66985;45.778;3.090;2023-02-28T10:27:14;8;8;
77794;PMS5003;66985;45.778;3.090;2023-02-28T10:29:40;7;7;
77794;PMS5003;66985;45.778;3.090;2023-02-28T10:32:05;9;7;
77794;PMS5003;66985;45.778;3.090;2023-02-28T10:34:31;6;5;
77794;PMS5003;66985;45.778;3.090;2023-02-28T10:36:56;5;5;
77794;PMS5003;66985;45.778;3.090;2023-02-28T10:39:41;6;5;
77794;PMS5003;66985;45.778;3.090;2023-02-28T10:41:47;5;5;
77794;PMS5003;66985;45.778;3.090;2023-02-28T10:44:13;6;6;
77794;PMS5003;66985;45.778;3.090;2023-02-28T10:46:39;8;7;
77794;PMS5003;66985;45.778;3.090;2023-02-28T10:49:05;7;7;
77794;PMS5003;66985;45.778;3.090;2023-02-28T10:51:34;5;5;
77794;PMS5003;66985;45.778;3.090;2023-02-28T10:53:55;7;6;
77794;PMS5003;66985;45.778;3.090;2023-02-28T10:56:21;6;6;
77794;PMS5003;66985;45.778;3.090;2023-02-28T10:58:48;9;8;
77794;PMS5003;66985;45.778;3.090;2023-02-28T11:01:13;6;6;
77794;PMS5003;66985;45.778;3.090;2023-02-28T11:03:37;9;8;
77794;PMS5003;66985;45.778;3.090;2023-02-28T11:06:05;8;6;
77794;PMS5003;66985;45.778;3.090;2023-02-28T11:08:28;10;8;
77794;PMS5003;66985;45.778;3.090;2023-02-28T11:10:55;8;8;
77794;PMS5003;66985;45.778;3.090;2023-02-28T11:13:20;9;8;
77794;PMS5003;66985;45.778;3.090;2023-02-28T11:15:49;10;7;
77794;PMS5003;66985;45.778;3.090;2023-02-28T11:18:18;9;8;
77794;PMS5003;66985;45.778;3.090;2023-02-28T11:20:36;11;10;
77794;PMS5003;66985;45.778;3.090;2023-02-28T11:23:03;12;10;
77794;PMS5003;66985;45.778;3.090;2023-02-28T11:25:28;13;13;
77794;PMS5003;66985;45.778;3.090;2023-02-28T11:27:54;13;12;
77794;PMS5003;66985;45.778;3.090;2023-02-28T11:30:28;15;14;
77794;PMS5003;66985;45.778;3.090;2023-02-28T11:32:48;12;11;
77794;PMS5003;66985;45.778;3.090;2023-02-28T11:35:14;17;14;
77794;PMS5003;66985;45.778;3.090;2023-02-28T11:37:36;18;16;
77794;PMS5003;66985;45.778;3.090;2023-02-28T11:40:01;17;16;
77794;PMS5003;66985;45.778;3.090;2023-02-28T11:42:31;17;14;
77794;PMS5003;66985;45.778;3.090;2023-02-28T11:44:56;17;15;
77794;PMS5003;66985;45.778;3.090;2023-02-28T11:47:19;19;16;
77794;PMS5003;66985;45.778;3.090;2023-02-28T11:49:45;16;15;
77794;PMS5003;66985;45.778;3.090;2023-02-28T11:52:13;24;17;
77794;PMS5003;66985;45.778;3.090;2023-02-28T11:54:40;17;15;
77794;PMS5003;66985;45.778;3.090;2023-02-28T11:57:00;18;18;
77794;PMS5003;66985;45.778;3.090;2023-02-28T11:59:29;18;16;
77794;PMS5003;66985;45.778;3.090;2023-02-28T12:01:58;14;14;
77794;PMS5003;66985;45.778;3.090;2023-02-28T12:04:21;18;15;
77794;PMS5003;66985;45.778;3.090;2023-02-28T12:06:44;19;16;
77794;PMS5003;66985;45.778;3.090;2023-02-28T12:09:11;14;14;
77794;PMS5003;66985;45.778;3.090;2023-02-28T12:11:35;19;19;
77794;PMS5003;66985;45.778;3.090;2023-02-28T12:14:01;19;16;
77794;PMS5003;66985;45.778;3.090;2023-02-28T12:16:58;17;16;
77794;PMS5003;66985;45.778;3.090;2023-02-28T12:18:53;18;15;
77794;PMS5003;66985;45.778;3.090;2023-02-28T12:21:16;23;18;
77794;PMS5003;66985;45.778;3.090;2023-02-28T12:23:44;20;19;
77794;PMS5003;66985;45.778;3.090;2023-02-28T12:26:07;24;19;
77794;PMS5003;66985;45.778;3.090;2023-02-28T12:28:31;16;12;
77794;PMS5003;66985;45.778;3.090;2023-02-28T12:30:56;18;16;
77794;PMS5003;66985;45.778;3.090;2023-02-28T12:33:22;19;17;
77794;PMS5003;66985;45.778;3.090;2023-02-28T12:35:48;15;15;
77794;PMS5003;66985;45.778;3.090;2023-02-28T12:38:14;18;16;
77794;PMS5003;66985;45.778;3.090;2023-02-28T12:40:42;14;13;
77794;PMS5003;66985;45.778;3.090;2023-02-28T12:43:04;18;14;
77794;PMS5003;66985;45.778;3.090;2023-02-28T12:45:31;22;18;
77794;PMS5003;66985;45.778;3.090;2023-02-28T12:47:55;18;17;
77794;PMS5003;66985;45.778;3.090;2023-02-28T12:50:19;22;17;
77794;PMS5003;66985;45.778;3.090;2023-02-28T12:52:47;18;16;
77794;PMS5003;66985;45.778;3.090;2023-02-28T12:55:13;21;16;
77794;PMS5003;66985;45.778;3.090;2023-02-28T12:57:36;15;15;
77794;PMS5003;66985;45.778;3.090;2023-02-28T13:00:03;17;13;
77794;PMS5003;66985;45.778;3.090;2023-02-28T13:02:33;17;14;
77794;PMS5003;66985;45.778;3.090;2023-02-28T13:04:55;18;13;
77794;PMS5003;66985;45.778;3.090;2023-02-28T13:09:30;15;14;
77794;PMS5003;66985;45.778;3.090;2023-02-28T13:11:56;16;13;
77794;PMS5003;66985;45.778;3.090;2023-02-28T13:14:23;12;12;
77794;PMS5003;66985;45.778;3.090;2023-02-28T13:16:49;16;11;
77794;PMS5003;66985;45.778;3.090;2023-02-28T13:19:15;16;13;
77794;PMS5003;66985;45.778;3.090;2023-02-28T13:21:41;19;16;
77794;PMS5003;66985;45.778;3.090;2023-02-28T13:24:04;16;14;
77794;PMS5003;66985;45.778;3.090;2023-02-28T13:27:35;14;12;
77794;PMS5003;66985;45.778;3.090;2023-02-28T13:28:57;18;16;
77794;PMS5003;66985;45.778;3.090;2023-02-28T13:31:20;14;12;
77794;PMS5003;66985;45.778;3.090;2023-02-28T13:34:04;17;16;
77794;PMS5003;66985;45.778;3.090;2023-02-28T13:36:22;15;15;
77794;PMS5003;66985;45.778;3.090;2023-02-28T13:38:37;15;14;
77794;PMS5003;66985;45.778;3.090;2023-02-28T13:42:22;12;12;
77794;PMS5003;66985;45.778;3.090;2023-02-28T13:43:35;16;16;
77794;PMS5003;66985;45.778;3.090;2023-02-28T13:46:10;14;12;
77794;PMS5003;66985;45.778;3.090;2023-02-28T13:48:19;14;14;
77794;PMS5003;66985;45.778;3.090;2023-02-28T13:50:44;12;12;
77794;PMS5003;66985;45.778;3.090;2023-02-28T13:53:19;14;12;
77794;PMS5003;66985;45.778;3.090;2023-02-28T13:55:35;12;12;
77794;PMS5003;66985;45.778;3.090;2023-02-28T13:58:04;14;12;
77794;PMS5003;66985;45.778;3.090;2023-02-28T14:00:29;17;17;
77794;PMS5003;66985;45.778;3.090;2023-02-28T14:02:54;12;12;
77794;PMS5003;66985;45.778;3.090;2023-02-28T14:05:17;10;10;
77794;PMS5003;66985;45.778;3.090;2023-02-28T14:07:43;15;13;
77794;PMS5003;66985;45.778;3.090;2023-02-28T14:10:07;11;10;
77794;PMS5003;66985;45.778;3.090;2023-02-28T14:13:11;11;11;
77794;PMS5003;66985;45.778;3.090;2023-02-28T14:14:58;11;11;
77794;PMS5003;66985;45.778;3.090;2023-02-28T14:17:24;13;13;
77794;PMS5003;66985;45.778;3.090;2023-02-28T14:19:49;12;12;
77794;PMS5003;66985;45.778;3.090;2023-02-28T14:22:17;14;12;
77794;PMS5003;66985;45.778;3.090;2023-02-28T14:24:46;12;10;
77794;PMS5003;66985;45.778;3.090;2023-02-28T14:27:11;10;10;
77794;PMS5003;66985;45.778;3.090;2023-02-28T14:29:36;15;12;
77794;PMS5003;66985;45.778;3.090;2023-02-28T14:31:58;11;11;
77794;PMS5003;66985;45.778;3.090;2023-02-28T14:34:26;12;12;
77794;PMS5003;66985;45.778;3.090;2023-02-28T14:36:47;14;11;
77794;PMS5003;66985;45.778;3.090;2023-02-28T14:39:13;12;11;
77794;PMS5003;66985;45.778;3.090;2023-02-28T14:41:39;11;11;
77794;PMS5003;66985;45.778;3.090;2023-02-28T14:44:13;15;13;
77794;PMS5003;66985;45.778;3.090;2023-02-28T14:46:41;10;10;
77794;PMS5003;66985;45.778;3.090;2023-02-28T14:48:55;12;11;
77794;PMS5003;66985;45.778;3.090;2023-02-28T14:51:21;11;11;
77794;PMS5003;66985;45.778;3.090;2023-02-28T14:53:47;14;11;
77794;PMS5003;66985;45.778;3.090;2023-02-28T14:56:17;14;12;
77794;PMS5003;66985;45.778;3.090;2023-02-28T14:58:36;15;13;
77794;PMS5003;66985;45.778;3.090;2023-02-28T15:01:02;10;9;
77794;PMS5003;66985;45.778;3.090;2023-02-28T15:03:30;11;11;
77794;PMS5003;66985;45.778;3.090;2023-02-28T15:05:53;13;13;
77794;PMS5003;66985;45.778;3.090;2023-02-28T15:08:18;14;11;
77794;PMS5003;66985;45.778;3.090;2023-02-28T15:10:44;11;10;
77794;PMS5003;66985;45.778;3.090;2023-02-28T15:13:11;12;9;
77794;PMS5003;66985;45.778;3.090;2023-02-28T15:15:39;12;12;
77794;PMS5003;66985;45.778;3.090;2023-02-28T15:18:00;13;10;
77794;PMS5003;66985;45.778;3.090;2023-02-28T15:20:25;15;14;
77794;PMS5003;66985;45.778;3.090;2023-02-28T15:22:51;15;11;
77794;PMS5003;66985;45.778;3.090;2023-02-28T15:25:18;14;9;
77794;PMS5003;66985;45.778;3.090;2023-02-28T15:27:44;10;9;
77794;PMS5003;66985;45.778;3.090;2023-02-28T15:30:11;15;13;
77794;PMS5003;66985;45.778;3.090;2023-02-28T15:32:34;16;11;
77794;PMS5003;66985;45.778;3.090;2023-02-28T15:34:59;10;8;
77794;PMS5003;66985;45.778;3.090;2023-02-28T15:37:29;14;11;
77794;PMS5003;66985;45.778;3.090;2023-02-28T15:39:50;12;10;
77794;PMS5003;66985;45.778;3.090;2023-02-28T15:42:18;10;10;
77794;PMS5003;66985;45.778;3.090;2023-02-28T15:44:41;12;12;
77794;PMS5003;66985;45.778;3.090;2023-02-28T15:47:12;10;10;
77794;PMS5003;66985;45.778;3.090;2023-02-28T15:49:36;12;11;
77794;PMS5003;66985;45.778;3.090;2023-02-28T15:51:58;13;13;
77794;PMS5003;66985;45.778;3.090;2023-02-28T15:54:24;13;10;
77794;PMS5003;66985;45.778;3.090;2023-02-28T15:56:49;12;12;
77794;PMS5003;66985;45.778;3.090;2023-02-28T15:59:15;14;14;
77794;PMS5003;66985;45.778;3.090;2023-02-28T16:01:40;14;13;
77794;PMS5003;66985;45.778;3.090;2023-02-28T16:04:06;14;11;
77794;PMS5003;66985;45.778;3.090;2023-02-28T16:06:32;18;15;
77794;PMS5003;66985;45.778;3.090;2023-02-28T16:08:55;14;12;
77794;PMS5003;66985;45.778;3.090;2023-02-28T16:11:20;14;12;
77794;PMS5003;66985;45.778;3.090;2023-02-28T16:13:46;15;12;
77794;PMS5003;66985;45.778;3.090;2023-02-28T16:16:15;17;15;
77794;PMS5003;66985;45.778;3.090;2023-02-28T16:18:37;17;14;
77794;PMS5003;66985;45.778;3.090;2023-02-28T16:21:03;18;15;
77794;PMS5003;66985;45.778;3.090;2023-02-28T16:23:28;18;17;